createdAt,value
2022-08-27T00:01:22.107Z,26.30
2022-08-27T00:03:49.217Z,26.10
2022-08-27T00:06:17.889Z,26.10
2022-08-27T00:08:47.911Z,26.10
2022-08-27T00:11:16.756Z,26.20
2022-08-27T00:13:45.339Z,26.30
2022-08-27T00:16:16.310Z,26.30
2022-08-27T00:18:47.969Z,26.20
2022-08-27T00:21:18.846Z,26.10
2022-08-27T00:23:45.820Z,26.00
2022-08-27T00:26:14.286Z,26.00
2022-08-27T00:28:42.718Z,26.10
2022-08-27T00:31:12.141Z,26.10
2022-08-27T00:33:39.810Z,26.20
2022-08-27T00:36:08.192Z,26.30
2022-08-27T00:38:35.999Z,26.20
2022-08-27T00:41:03.162Z,26.30
2022-08-27T00:43:42.573Z,26.30
2022-08-27T00:46:21.650Z,26.30
2022-08-27T00:48:51.370Z,26.40
2022-08-27T00:51:21.364Z,26.40
2022-08-27T00:53:49.598Z,26.40
2022-08-27T00:56:25.628Z,26.20
2022-08-27T00:58:54.509Z,26.30
2022-08-27T01:01:26.257Z,26.10
2022-08-27T01:03:57.215Z,26.20
2022-08-27T01:06:27.000Z,26.10
2022-08-27T01:09:07.628Z,26.10
2022-08-27T01:11:34.617Z,25.90
2022-08-27T01:14:03.924Z,25.80
2022-08-27T01:16:40.222Z,25.90
2022-08-27T01:19:18.365Z,25.80
2022-08-27T01:22:03.135Z,25.70
2022-08-27T01:24:50.703Z,25.50
2022-08-27T01:27:20.664Z,25.50
2022-08-27T01:29:48.517Z,25.50
2022-08-27T01:32:24.004Z,25.50
2022-08-27T01:34:51.652Z,25.30
2022-08-27T01:37:21.239Z,25.40
2022-08-27T01:39:51.825Z,25.40
2022-08-27T01:42:27.272Z,25.40
2022-08-27T01:45:05.662Z,25.40
2022-08-27T01:47:33.311Z,25.50
2022-08-27T01:50:00.435Z,25.60
2022-08-27T01:52:32.816Z,25.60
2022-08-27T01:54:59.893Z,25.70
2022-08-27T01:57:27.136Z,25.70
2022-08-27T01:59:56.986Z,25.60
2022-08-27T02:02:24.308Z,25.70
2022-08-27T02:04:52.131Z,25.60
2022-08-27T02:07:19.377Z,25.60
2022-08-27T02:09:46.387Z,25.40
2022-08-27T02:12:13.653Z,25.30
2022-08-27T02:14:40.638Z,25.30
2022-08-27T02:17:07.584Z,25.30
2022-08-27T02:19:34.517Z,25.30
2022-08-27T02:22:01.516Z,25.40
2022-08-27T02:24:29.230Z,25.50
2022-08-27T02:26:58.621Z,25.50
2022-08-27T02:29:26.059Z,25.50
2022-08-27T02:31:54.038Z,25.30
2022-08-27T02:34:21.718Z,25.30
2022-08-27T02:36:48.665Z,25.30
2022-08-27T02:39:15.664Z,25.30
2022-08-27T02:41:44.603Z,25.30
2022-08-27T02:44:11.565Z,25.10
2022-08-27T02:46:41.755Z,25.10
2022-08-27T02:49:09.601Z,25.30
2022-08-27T02:51:37.964Z,25.20
2022-08-27T02:54:09.679Z,25.30
2022-08-27T02:56:37.682Z,25.20
2022-08-27T02:59:05.187Z,25.20
2022-08-27T03:01:32.162Z,25.30
2022-08-27T03:03:59.151Z,25.40
2022-08-27T03:06:26.081Z,25.30
2022-08-27T03:08:53.658Z,25.30
2022-08-27T03:11:23.629Z,25.40
2022-08-27T03:13:51.550Z,25.40
2022-08-27T03:16:19.302Z,25.40
2022-08-27T03:18:48.155Z,25.50
2022-08-27T03:21:20.380Z,25.40
2022-08-27T03:23:48.697Z,25.30
2022-08-27T03:26:15.960Z,25.30
2022-08-27T03:28:42.961Z,25.30
2022-08-27T03:31:16.706Z,25.30
2022-08-27T03:33:43.683Z,25.30
2022-08-27T03:36:10.738Z,25.40
2022-08-27T03:38:38.070Z,25.40
2022-08-27T03:41:06.451Z,25.40
2022-08-27T03:43:33.416Z,25.40
2022-08-27T03:46:01.598Z,25.30
2022-08-27T03:48:31.862Z,25.40
2022-08-27T03:50:59.318Z,25.40
2022-08-27T03:53:26.862Z,25.40
2022-08-27T03:55:53.855Z,25.40
2022-08-27T03:58:20.955Z,25.20
2022-08-27T04:00:51.256Z,25.10
2022-08-27T04:03:18.432Z,25.10
2022-08-27T04:05:45.574Z,25.00
2022-08-27T04:08:13.356Z,24.90
2022-08-27T04:10:43.513Z,25.00
2022-08-27T04:13:10.546Z,25.10
2022-08-27T04:15:41.778Z,25.10
2022-08-27T04:18:08.799Z,25.10
2022-08-27T04:20:36.390Z,25.20
2022-08-27T04:23:04.271Z,25.20
2022-08-27T04:25:31.741Z,25.30
2022-08-27T04:27:59.099Z,25.30
2022-08-27T04:30:26.082Z,25.10
2022-08-27T04:32:53.115Z,24.90
2022-08-27T04:35:20.071Z,24.80
2022-08-27T04:37:46.930Z,24.80
2022-08-27T04:40:13.974Z,25.00
2022-08-27T04:42:41.135Z,24.90
2022-08-27T04:45:08.790Z,25.00
2022-08-27T04:47:35.890Z,25.10
2022-08-27T04:50:04.256Z,25.20
2022-08-27T04:52:32.991Z,25.20
2022-08-27T04:55:00.190Z,25.30
2022-08-27T04:57:27.885Z,25.20
2022-08-27T04:59:55.013Z,25.20
2022-08-27T05:02:21.920Z,25.30
2022-08-27T05:04:48.932Z,25.30
2022-08-27T05:07:16.000Z,25.30
2022-08-27T05:09:42.951Z,25.30
2022-08-27T05:12:09.906Z,25.40
2022-08-27T05:14:36.867Z,25.30
2022-08-27T05:17:03.949Z,25.30
2022-08-27T05:19:31.321Z,25.40
2022-08-27T05:22:01.549Z,25.50
2022-08-27T05:24:28.506Z,25.70
2022-08-27T05:26:55.443Z,25.80
2022-08-27T05:29:22.489Z,25.90
2022-08-27T05:31:49.614Z,25.90
2022-08-27T05:34:21.969Z,26.20
2022-08-27T05:36:53.184Z,26.40
2022-08-27T05:39:20.199Z,26.60
2022-08-27T05:41:47.175Z,26.70
2022-08-27T05:47:03.485Z,27.10
2022-08-27T05:49:31.814Z,27.40
2022-08-27T05:51:58.739Z,27.60
2022-08-27T05:54:25.724Z,27.70
2022-08-27T05:56:52.747Z,27.70
2022-08-27T05:59:38.351Z,27.80
2022-08-27T06:02:06.978Z,28.10
2022-08-27T06:04:34.355Z,28.30
2022-08-27T06:07:01.334Z,28.50
2022-08-27T06:09:29.540Z,28.60
2022-08-27T06:12:00.595Z,28.60
2022-08-27T06:14:28.160Z,28.70
2022-08-27T06:16:55.665Z,28.90
2022-08-27T06:19:23.447Z,28.90
2022-08-27T06:22:01.292Z,28.60
2022-08-27T06:24:39.451Z,28.30
2022-08-27T06:27:06.595Z,28.10
2022-08-27T06:29:35.145Z,28.00
2022-08-27T06:32:02.249Z,27.90
2022-08-27T06:34:29.204Z,27.90
2022-08-27T06:36:56.303Z,27.90
2022-08-27T06:39:23.308Z,27.80
2022-08-27T06:41:50.487Z,27.90
2022-08-27T06:44:22.157Z,28.10
2022-08-27T06:46:49.177Z,28.00
2022-08-27T06:49:16.274Z,27.90
2022-08-27T06:51:46.799Z,27.70
2022-08-27T06:54:15.311Z,27.70
2022-08-27T06:56:43.728Z,27.70
2022-08-27T06:59:15.489Z,27.70
2022-08-27T07:01:46.124Z,27.80
2022-08-27T07:04:31.910Z,27.80
2022-08-27T07:06:59.860Z,28.00
2022-08-27T07:09:27.144Z,28.00
2022-08-27T07:11:54.781Z,28.20
2022-08-27T07:14:22.001Z,28.40
2022-08-27T07:16:50.690Z,28.60
2022-08-27T07:19:19.462Z,28.70
2022-08-27T07:21:51.436Z,28.60
2022-08-27T07:24:19.205Z,28.50
2022-08-27T07:26:46.896Z,28.20
2022-08-27T07:29:15.263Z,28.10
2022-08-27T07:31:42.376Z,28.00
2022-08-27T07:34:09.423Z,28.00
2022-08-27T07:36:37.847Z,28.00
2022-08-27T07:39:05.574Z,27.90
2022-08-27T07:41:53.569Z,27.90
2022-08-27T07:44:27.950Z,27.80
2022-08-27T07:46:56.723Z,27.80
2022-08-27T07:49:25.229Z,27.90
2022-08-27T07:51:52.444Z,28.00
2022-08-27T07:54:22.670Z,28.20
2022-08-27T07:56:55.400Z,28.40
2022-08-27T07:59:27.393Z,28.60
2022-08-27T08:01:56.371Z,28.80
2022-08-27T08:04:24.583Z,28.90
2022-08-27T08:06:51.799Z,29.00
2022-08-27T08:09:20.258Z,29.20
2022-08-27T08:11:49.063Z,29.30
2022-08-27T08:14:16.072Z,29.30
2022-08-27T08:16:43.291Z,29.30
2022-08-27T08:19:10.279Z,29.30
2022-08-27T08:21:38.672Z,29.40
2022-08-27T08:24:06.425Z,29.40
2022-08-27T08:26:33.964Z,29.40
2022-08-27T08:29:04.417Z,29.50
2022-08-27T08:31:31.332Z,29.50
2022-08-27T08:33:58.706Z,29.50
2022-08-27T08:36:25.673Z,29.50
2022-08-27T08:38:54.318Z,29.40
2022-08-27T08:41:27.304Z,29.30
2022-08-27T08:44:03.368Z,29.30
2022-08-27T08:46:46.643Z,29.20
2022-08-27T08:49:39.594Z,29.10
2022-08-27T08:52:32.194Z,29.10
2022-08-27T08:55:03.201Z,29.00
2022-08-27T08:57:45.827Z,29.10
2022-08-27T09:00:14.226Z,29.10
2022-08-27T09:02:48.030Z,29.10
2022-08-27T09:05:15.995Z,29.10
2022-08-27T09:08:21.275Z,29.10
2022-08-27T09:11:08.310Z,29.10
2022-08-27T09:13:43.187Z,29.00
2022-08-27T09:16:11.268Z,28.80
2022-08-27T09:18:40.841Z,28.70
2022-08-27T09:21:10.988Z,28.60
2022-08-27T09:23:54.339Z,28.30
2022-08-27T09:26:27.943Z,28.00
2022-08-27T09:29:18.304Z,28.00
2022-08-27T09:32:08.712Z,27.70
2022-08-27T09:34:40.687Z,27.30
2022-08-27T09:37:15.808Z,26.90
2022-08-27T09:40:23.265Z,26.80
2022-08-27T09:42:57.586Z,26.30
2022-08-27T09:45:30.307Z,25.90
2022-08-27T09:48:10.811Z,25.60
2022-08-27T09:50:43.837Z,25.60
2022-08-27T09:53:40.406Z,25.80
2022-08-27T09:56:09.727Z,26.00
2022-08-27T09:58:50.594Z,25.70
2022-08-27T10:01:19.153Z,25.40
2022-08-27T10:03:46.583Z,24.60
2022-08-27T10:06:13.892Z,24.20
2022-08-27T10:08:48.378Z,24.10
2022-08-27T10:11:26.183Z,24.20
2022-08-27T10:14:14.748Z,24.40
2022-08-27T10:17:05.372Z,24.40
2022-08-27T10:19:46.514Z,24.40
2022-08-27T10:22:28.412Z,24.50
2022-08-27T10:25:18.811Z,24.40
2022-08-27T10:28:18.286Z,24.40
2022-08-27T10:30:58.455Z,24.20
2022-08-27T10:34:06.567Z,24.10
2022-08-27T10:36:46.728Z,24.00
2022-08-27T10:39:30.070Z,24.10
2022-08-27T10:42:20.218Z,24.10
2022-08-27T10:45:04.424Z,24.00
2022-08-27T10:47:31.347Z,23.80
2022-08-27T10:50:17.731Z,23.70
2022-08-27T10:53:04.225Z,23.60
2022-08-27T10:55:46.000Z,23.30
2022-08-27T10:58:46.650Z,23.30
2022-08-27T11:01:31.324Z,23.30
2022-08-27T11:04:10.405Z,23.30
2022-08-27T11:06:45.767Z,23.40
2022-08-27T11:09:35.120Z,23.50
2022-08-27T11:12:14.325Z,23.50
2022-08-27T11:14:41.690Z,23.50
2022-08-27T11:17:32.301Z,23.60
2022-08-27T11:20:02.159Z,23.60
2022-08-27T11:22:35.010Z,23.70
2022-08-27T11:25:13.738Z,23.70
2022-08-27T11:27:41.738Z,23.60
2022-08-27T11:30:19.019Z,23.50
2022-08-27T11:33:20.681Z,23.50
2022-08-27T11:36:02.954Z,23.40
2022-08-27T11:39:01.274Z,23.50
2022-08-27T11:41:47.407Z,23.60
2022-08-27T11:44:16.168Z,23.60
2022-08-27T11:46:53.605Z,23.70
2022-08-27T11:49:29.734Z,23.80
2022-08-27T11:52:03.824Z,23.60
2022-08-27T11:54:44.768Z,23.60
2022-08-27T11:57:29.933Z,23.70
2022-08-27T12:00:01.398Z,23.70
2022-08-27T12:02:32.916Z,23.80
2022-08-27T12:05:25.919Z,23.60
2022-08-27T12:07:53.871Z,23.40
2022-08-27T12:10:20.755Z,23.30
2022-08-27T12:13:00.752Z,23.40
2022-08-27T12:15:46.879Z,23.40
2022-08-27T12:18:37.143Z,23.50
2022-08-27T12:21:22.171Z,23.50
2022-08-27T12:24:13.624Z,23.60
2022-08-27T12:26:53.632Z,23.60
2022-08-27T12:29:43.944Z,23.70
2022-08-27T12:32:26.243Z,23.70
2022-08-27T12:35:05.811Z,23.80
2022-08-27T12:37:56.860Z,24.00
2022-08-27T12:40:30.421Z,24.00
2022-08-27T12:43:17.419Z,24.00
2022-08-27T12:45:57.006Z,24.00
2022-08-27T12:48:28.055Z,24.10
2022-08-27T12:51:10.769Z,24.20
2022-08-27T12:54:08.464Z,24.20
2022-08-27T12:56:47.032Z,24.20
2022-08-27T12:59:20.054Z,24.20
2022-08-27T13:01:47.084Z,24.20
2022-08-27T13:04:41.772Z,24.10
2022-08-27T13:07:09.107Z,24.00
2022-08-27T13:09:40.249Z,24.00
2022-08-27T13:12:17.567Z,24.00
2022-08-27T13:14:44.790Z,24.10
2022-08-27T13:17:23.104Z,24.10
2022-08-27T13:19:57.543Z,24.10
2022-08-27T13:22:27.629Z,24.20
2022-08-27T13:24:56.373Z,24.20
2022-08-27T13:27:32.687Z,24.10
2022-08-27T13:30:10.878Z,24.20
2022-08-27T13:32:45.745Z,24.10
2022-08-27T13:35:13.209Z,24.10
2022-08-27T13:37:49.987Z,24.20
2022-08-27T13:40:28.772Z,24.30
2022-08-27T13:42:58.662Z,24.20
2022-08-27T13:45:26.518Z,24.20
2022-08-27T13:47:54.372Z,24.20
2022-08-27T13:50:27.943Z,24.30
2022-08-27T13:53:28.458Z,24.30
2022-08-27T13:55:57.336Z,24.30
2022-08-27T13:58:29.436Z,24.40
2022-08-27T14:01:33.384Z,24.40
2022-08-27T14:04:07.314Z,24.50
2022-08-27T14:06:46.413Z,24.50
2022-08-27T14:09:22.572Z,24.60
2022-08-27T14:11:57.572Z,24.60
2022-08-27T14:14:24.931Z,24.70
2022-08-27T14:17:08.824Z,24.90
2022-08-27T14:19:36.798Z,25.00
2022-08-27T14:22:04.317Z,25.10
2022-08-27T14:24:31.311Z,25.10
2022-08-27T14:27:07.898Z,25.20
2022-08-27T14:29:36.988Z,25.30
2022-08-27T14:32:04.189Z,25.30
2022-08-27T14:34:31.219Z,25.30
2022-08-27T14:36:58.135Z,25.20
2022-08-27T14:39:26.596Z,25.30
2022-08-27T14:41:54.502Z,25.40
2022-08-27T14:44:22.199Z,25.50
2022-08-27T14:46:52.047Z,25.50
2022-08-27T14:49:27.707Z,25.50
2022-08-27T14:51:54.857Z,25.60
2022-08-27T14:54:21.891Z,25.60
2022-08-27T14:56:50.694Z,25.60
2022-08-27T14:59:17.618Z,25.70
2022-08-27T15:01:44.698Z,25.70
2022-08-27T15:04:12.251Z,25.70
2022-08-27T15:06:39.731Z,25.70
2022-08-27T15:09:06.879Z,25.80
2022-08-27T15:11:36.671Z,25.80
2022-08-27T15:14:08.239Z,25.80
2022-08-27T15:16:41.156Z,25.70
2022-08-27T15:19:11.304Z,25.70
2022-08-27T15:21:40.111Z,25.80
2022-08-27T15:24:25.298Z,25.80
2022-08-27T15:26:57.356Z,25.70
2022-08-27T15:29:25.091Z,25.70
2022-08-27T15:31:52.676Z,25.60
2022-08-27T15:34:19.835Z,25.50
2022-08-27T15:36:46.989Z,25.50
2022-08-27T15:39:13.911Z,25.50
2022-08-27T15:42:05.235Z,25.70
2022-08-27T15:44:29.731Z,25.50
2022-08-27T15:46:56.684Z,25.60
2022-08-27T15:49:23.657Z,25.40
2022-08-27T15:51:52.020Z,25.30
2022-08-27T15:54:19.136Z,25.30
2022-08-27T15:56:46.064Z,25.30
2022-08-27T15:59:13.246Z,25.30
2022-08-27T16:01:43.574Z,25.30
2022-08-27T16:04:10.672Z,25.30
2022-08-27T16:06:38.717Z,25.40
2022-08-27T16:09:05.747Z,25.50
2022-08-27T16:11:32.897Z,25.50
2022-08-27T16:14:00.028Z,25.50
2022-08-27T16:16:30.701Z,25.60
2022-08-27T16:19:00.108Z,25.60
2022-08-27T16:21:27.821Z,25.60
2022-08-27T16:23:54.751Z,25.60
2022-08-27T16:26:21.651Z,25.70
2022-08-27T16:28:48.613Z,25.60
2022-08-27T16:31:15.974Z,25.60
2022-08-27T16:33:43.175Z,25.50
2022-08-27T16:36:10.941Z,25.60
2022-08-27T16:38:38.127Z,25.80
2022-08-27T16:41:06.308Z,25.90
2022-08-27T16:43:34.794Z,25.90
2022-08-27T16:46:02.320Z,25.90
2022-08-27T16:48:48.247Z,26.00
2022-08-27T16:51:28.592Z,26.10
2022-08-27T16:53:56.811Z,26.10
2022-08-27T16:56:27.418Z,26.20
2022-08-27T16:58:56.006Z,26.10
2022-08-27T17:01:24.038Z,26.00
2022-08-27T17:04:14.835Z,26.10
2022-08-27T17:06:41.362Z,26.20
2022-08-27T17:09:10.372Z,26.20
2022-08-27T17:11:41.693Z,26.10
2022-08-27T17:14:10.882Z,26.10
2022-08-27T17:16:44.215Z,26.10
2022-08-27T17:19:16.825Z,26.00
2022-08-27T17:21:45.216Z,26.10
2022-08-27T17:24:13.125Z,26.00
2022-08-27T17:26:40.543Z,26.00
2022-08-27T17:29:07.506Z,25.90
2022-08-27T17:31:38.046Z,25.90
2022-08-27T17:34:07.254Z,25.90
2022-08-27T17:36:35.251Z,25.90
2022-08-27T17:39:03.079Z,25.90
2022-08-27T17:41:36.738Z,25.80
2022-08-27T17:44:13.895Z,25.70
2022-08-27T17:46:40.915Z,25.60
2022-08-27T17:49:07.800Z,25.60
2022-08-27T17:51:36.005Z,25.60
2022-08-27T17:54:03.971Z,25.50
2022-08-27T17:56:30.924Z,25.40
2022-08-27T17:58:58.031Z,25.50
2022-08-27T18:01:31.790Z,25.40
2022-08-27T18:03:59.475Z,25.10
2022-08-27T18:06:28.516Z,24.90
2022-08-27T18:08:57.304Z,24.80
2022-08-27T18:11:25.312Z,24.70
2022-08-27T18:13:59.567Z,24.70
2022-08-27T18:16:28.634Z,24.80
2022-08-27T18:18:57.958Z,24.60
2022-08-27T18:21:25.897Z,24.30
2022-08-27T18:23:53.787Z,24.30
2022-08-27T18:26:23.227Z,24.30
2022-08-27T18:28:50.217Z,24.30
2022-08-27T18:31:19.754Z,24.40
2022-08-27T18:33:46.817Z,24.20
2022-08-27T18:36:15.282Z,24.20
2022-08-27T18:38:42.220Z,24.20
2022-08-27T18:41:09.503Z,24.20
2022-08-27T18:43:36.639Z,24.30
2022-08-27T18:46:05.049Z,24.20
2022-08-27T18:48:32.637Z,24.20
2022-08-27T18:51:02.750Z,24.10
2022-08-27T18:53:33.867Z,24.10
2022-08-27T18:56:05.069Z,24.10
2022-08-27T18:58:32.117Z,24.00
2022-08-27T19:01:05.740Z,23.90
2022-08-27T19:03:45.232Z,23.80
2022-08-27T19:06:13.151Z,23.90
2022-08-27T19:08:40.887Z,23.80
2022-08-27T19:11:07.987Z,23.80
2022-08-27T19:13:35.279Z,23.70
2022-08-27T19:16:05.556Z,23.60
2022-08-27T19:18:37.921Z,23.70
2022-08-27T19:21:05.671Z,23.80
2022-08-27T19:23:32.995Z,23.70
2022-08-27T19:26:01.654Z,23.50
2022-08-27T19:28:42.152Z,23.50
2022-08-27T19:31:09.099Z,23.50
2022-08-27T19:33:36.597Z,23.50
2022-08-27T19:36:05.127Z,23.50
2022-08-27T19:38:33.016Z,23.60
2022-08-27T19:41:01.471Z,23.60
2022-08-27T19:43:28.963Z,23.50
2022-08-27T19:45:57.475Z,23.50
2022-08-27T19:48:24.918Z,23.60
2022-08-27T19:50:51.832Z,23.60
2022-08-27T19:53:18.822Z,23.60
2022-08-27T19:55:46.130Z,23.50
2022-08-27T19:58:14.601Z,23.50
2022-08-27T20:00:45.133Z,23.40
2022-08-27T20:03:12.600Z,23.20
2022-08-27T20:05:39.889Z,23.20
2022-08-27T20:08:07.088Z,23.40
2022-08-27T20:10:36.659Z,23.40
2022-08-27T20:13:04.607Z,23.40
2022-08-27T20:15:31.925Z,23.40
2022-08-27T20:18:01.709Z,23.40
2022-08-27T20:20:29.155Z,23.40
2022-08-27T20:22:57.231Z,23.40
2022-08-27T20:25:25.067Z,23.50
2022-08-27T20:27:52.836Z,23.40
2022-08-27T20:30:22.911Z,23.40
2022-08-27T20:32:50.331Z,23.30
2022-08-27T20:35:18.418Z,23.30
2022-08-27T20:37:46.304Z,23.20
2022-08-27T20:40:18.477Z,23.20
2022-08-27T20:42:45.587Z,23.30
2022-08-27T20:45:15.852Z,23.30
2022-08-27T20:47:44.786Z,23.20
2022-08-27T20:50:13.372Z,23.20
2022-08-27T20:52:41.583Z,23.30
2022-08-27T20:55:09.933Z,23.30
2022-08-27T20:57:36.888Z,23.20
2022-08-27T21:00:20.483Z,23.20
2022-08-27T21:02:47.859Z,23.10
2022-08-27T21:05:16.760Z,23.00
2022-08-27T21:07:44.841Z,22.90
2022-08-27T21:10:11.893Z,22.90
2022-08-27T21:12:38.796Z,22.90
2022-08-27T21:15:07.753Z,22.90
2022-08-27T21:17:34.973Z,23.00
2022-08-27T21:20:02.643Z,23.00
2022-08-27T21:22:29.584Z,22.90
2022-08-27T21:24:56.619Z,22.90
2022-08-27T21:27:23.567Z,22.90
2022-08-27T21:29:50.886Z,23.00
2022-08-27T21:32:18.154Z,23.10
2022-08-27T21:34:45.158Z,23.00
2022-08-27T21:37:13.975Z,22.80
2022-08-27T21:39:42.358Z,22.90
2022-08-27T21:42:12.936Z,22.90
2022-08-27T21:44:40.124Z,23.00
2022-08-27T21:47:07.574Z,23.00
2022-08-27T21:49:35.093Z,23.00
2022-08-27T21:52:04.805Z,23.00
2022-08-27T21:54:38.000Z,23.10
2022-08-27T21:57:06.260Z,23.10
2022-08-27T21:59:38.940Z,23.10
2022-08-27T22:02:23.001Z,23.00
2022-08-27T22:04:52.742Z,23.00
2022-08-27T22:07:19.761Z,22.90
2022-08-27T22:09:46.721Z,22.90
2022-08-27T22:12:13.608Z,23.00
2022-08-27T22:14:41.148Z,22.90
2022-08-27T22:17:08.096Z,22.80
2022-08-27T22:19:35.027Z,22.80
2022-08-27T22:22:01.933Z,22.90
2022-08-27T22:24:28.818Z,22.90
2022-08-27T22:26:55.764Z,23.00
2022-08-27T22:29:24.480Z,23.00
2022-08-27T22:31:54.466Z,23.00
2022-08-27T22:34:21.368Z,22.90
2022-08-27T22:36:49.738Z,22.90
2022-08-27T22:39:16.675Z,22.70
2022-08-27T22:41:48.612Z,22.70
2022-08-27T22:44:16.546Z,22.80
2022-08-27T22:46:43.545Z,22.80
2022-08-27T22:49:13.593Z,22.80
2022-08-27T22:51:40.634Z,22.80
2022-08-27T22:54:08.005Z,22.80
2022-08-27T22:56:35.468Z,22.70
2022-08-27T22:59:03.171Z,22.80
2022-08-27T23:01:36.322Z,22.80
2022-08-27T23:04:06.287Z,22.80
2022-08-27T23:06:34.427Z,22.90
2022-08-27T23:09:01.847Z,22.90
2022-08-27T23:11:31.850Z,22.80
2022-08-27T23:13:59.546Z,22.80
2022-08-27T23:16:27.576Z,22.80
2022-08-27T23:18:54.745Z,22.80
2022-08-27T23:21:21.652Z,22.70
2022-08-27T23:23:48.989Z,22.80
2022-08-27T23:26:34.445Z,22.80
2022-08-27T23:29:01.291Z,22.80
2022-08-27T23:31:28.253Z,22.80
2022-08-27T23:33:55.920Z,22.80
2022-08-27T23:36:23.338Z,22.80
2022-08-27T23:38:50.246Z,22.80
2022-08-27T23:41:17.172Z,22.80
2022-08-27T23:43:44.972Z,22.70
2022-08-27T23:46:12.141Z,22.70
2022-08-27T23:48:39.428Z,22.70
2022-08-27T23:51:07.886Z,22.70
2022-08-27T23:53:34.864Z,22.70
2022-08-27T23:56:01.675Z,22.60
2022-08-27T23:58:28.589Z,22.60
